Pride Of Burgundy — MQSQ9 — position and weather

sailwx.info

Track history (hours):
 
Tides and Currents Weather Stations Pressure Air Temp Water Temp Dewpoint Dewpoint Depression Visibility Wind Speed Wind Dir Waves Ship Positions

Pride Of Burgundy

Operator: P & O Ferries

Last reported at 2018-Nov-11 02:32 UTC. Time now 2018-Nov-13 07:32 UTC.
Position N 50°58' E 001°51'.

Length 180 m; draft 6.2 m.

Type: Passenger vessel. MMSI: 232001470.

Date/timePositionNaut miles runAvg speedWind from/ knotsBaromVisibWave heightAir tempDewpointWater temp
2018-Nov-11 02:32N 50°58' E 001°51'0 0.0
2018-Nov-11 02:02N 50°58' E 001°51'0 0.0
2018-Nov-11 01:32N 50°58' E 001°51'0 0.0
2018-Nov-11 01:02N 50°58' E 001°51'0 0.0
2018-Nov-11 00:32N 50°58' E 001°51'0 0.0
2018-Nov-11 00:02N 50°58' E 001°51'0 0.0
2018-Nov-10 23:32N 50°58' E 001°51'0 0.0
2018-Nov-10 23:02N 50°58' E 001°51'0 0.0
2018-Nov-10 22:32N 50°58' E 001°51'0 0.0
2018-Nov-10 22:02N 50°58' E 001°51'0 0.0
2018-Nov-10 21:32N 50°58' E 001°51'0 0.0
2018-Nov-10 21:02N 50°58' E 001°51'0 0.0
2018-Nov-10 20:32N 50°58' E 001°51'611.9
2018-Nov-10 20:03N 50°58' E 001°42'918.3
2018-Nov-10 19:33N 51°03' E 001°29'713.9
2018-Nov-10 19:02N 51°07' E 001°20'0 0.0
2018-Nov-10 18:31N 51°07' E 001°20'4 9.3
2018-Nov-10 18:02N 51°06' E 001°27'1019.6
2018-Nov-10 17:32N 51°01' E 001°40'714.8
2018-Nov-10 17:02N 50°58' E 001°51'0 0.0
2018-Nov-10 16:32N 50°58' E 001°51'5 9.5
2018-Nov-10 16:02N 50°58' E 001°43'918.9
2018-Nov-10 15:32N 51°03' E 001°31'816.0
2018-Nov-10 15:02N 51°07' E 001°20'0 0.0
2018-Nov-10 14:32N 51°07' E 001°20'0 0.2
2018-Nov-10 14:01N 51°07' E 001°20'612.4
2018-Nov-10 13:33N 51°07' E 001°29'917.3
2018-Nov-10 13:02N 51°02' E 001°40'815.0
2018-Nov-10 12:32N 50°58' E 001°51'0 0.5
2018-Nov-10 12:02N 50°58' E 001°51'0 0.1
2018-Nov-10 11:32N 50°58' E 001°51'917.2
2018-Nov-10 11:02N 50°59' E 001°37'917.2
2018-Nov-10 10:32N 51°05' E 001°28'510.8
2018-Nov-10 10:02N 51°07' E 001°20'0 0.0
2018-Nov-10 09:33N 51°07' E 001°20'1 1.7
2018-Nov-10 09:02N 51°07' E 001°21'816.0
2018-Nov-10 08:32N 51°04' E 001°33'1019.0
2018-Nov-10 08:02N 50°58' E 001°45'4 8.4
2018-Nov-10 07:32N 50°58' E 001°52'0 0.0
2018-Nov-10 07:02N 50°58' E 001°52'1 2.9
2018-Nov-10 06:33N 50°58' E 001°49'816.7
2018-Nov-10 06:02N 51°01' E 001°37'919.0
2018-Nov-10 05:32N 51°06' E 001°24'3 5.6
2018-Nov-10 05:02N 51°07' E 001°20'0 0.0
2018-Nov-10 04:32N 51°07' E 001°20'1 1.5
2018-Nov-10 04:02N 51°07' E 001°21'815.7
2018-Nov-10 03:32N 51°04' E 001°33'918.1
2018-Nov-10 03:02N 50°59' E 001°44'4 8.8
2018-Nov-10 02:32N 50°58' E 001°51'0 0.0
2018-Nov-10 02:02N 50°58' E 001°51'0 0.0
2018-Nov-10 01:32N 50°58' E 001°51'0 0.0
2018-Nov-10 01:02N 50°58' E 001°51'0 0.0
2018-Nov-10 00:32N 50°58' E 001°51'0 0.0
2018-Nov-10 00:02N 50°58' E 001°51'0 0.0
2018-Nov-09 23:32N 50°58' E 001°51'0 0.0
2018-Nov-09 23:02N 50°58' E 001°51'0 0.0
2018-Nov-09 22:32N 50°58' E 001°51'0 0.0
2018-Nov-09 22:02N 50°58' E 001°51'0 0.0
2018-Nov-09 21:32N 50°58' E 001°51'0 0.0
2018-Nov-09 21:02N 50°58' E 001°51'2 3.9
2018-Nov-09 20:32N 50°58' E 001°48'816.9
2018-Nov-09 20:03N 51°01' E 001°35'917.6
2018-Nov-09 19:32N 51°06' E 001°24'3 5.1
2018-Nov-09 19:00N 51°07' E 001°20'0 0.3
2018-Nov-09 18:32N 51°07' E 001°20'510.1
2018-Nov-09 18:03N 51°05' E 001°28'815.9
2018-Nov-09 17:32N 51°01' E 001°38'917.2
2018-Nov-09 17:03N 50°58' E 001°51'0 0.3
2018-Nov-09 16:32N 50°58' E 001°51'3 6.6
2018-Nov-09 16:03N 50°58' E 001°46'918.8
2018-Nov-09 15:32N 51°02' E 001°32'918.3
2018-Nov-09 15:03N 51°07' E 001°21'0 0.6
2018-Nov-09 14:32N 51°07' E 001°20'0 0.7
2018-Nov-09 14:03N 51°07' E 001°21'815.8
2018-Nov-09 13:32N 51°06' E 001°33'917.5
2018-Nov-09 13:03N 50°59' E 001°42'612.4
2018-Nov-09 12:32N 50°58' E 001°52'0 0.2
2018-Nov-09 12:01N 50°58' E 001°52'0 0.0
2018-Nov-09 11:32N 50°58' E 001°52'816.0
2018-Nov-09 11:02N 50°58' E 001°39'918.4
2018-Nov-09 10:32N 51°03' E 001°27'611.9
2018-Nov-09 10:02N 51°07' E 001°20'0 0.0
2018-Nov-09 09:32N 51°07' E 001°20'0 0.3
2018-Nov-09 09:03N 51°07' E 001°20'815.4
2018-Nov-09 08:32N 51°04' E 001°31'1020.1
2018-Nov-09 08:02N 50°58' E 001°44'4 8.2
2018-Nov-09 07:33N 50°58' E 001°51'0 0.0
2018-Nov-09 07:02N 50°58' E 001°51'2 3.5
2018-Nov-09 06:33N 50°58' E 001°48'816.9
2018-Nov-09 06:02N 50°59' E 001°35'918.6
2018-Nov-09 05:32N 51°06' E 001°24'3 6.2
2018-Nov-09 05:02N 51°07' E 001°20'0 0.0
2018-Nov-09 04:32N 51°07' E 001°20'0 0.0
2018-Nov-09 04:02N 51°07' E 001°20'3 6.5
2018-Nov-09 03:33N 51°06' E 001°25'1019.7
2018-Nov-09 03:02N 51°01' E 001°38'917.1
2018-Nov-09 02:32N 50°58' E 001°51'0 0.3
2018-Nov-09 02:02N 50°58' E 001°51'0 0.0
2018-Nov-09 01:32N 50°58' E 001°51'0 0.0
2018-Nov-09 01:02N 50°58' E 001°51'0 0.0
2018-Nov-09 00:32N 50°58' E 001°51'0 0.0
2018-Nov-09 00:03N 50°58' E 001°51'0 0.0
2018-Nov-08 23:32N 50°58' E 001°51'0 0.0
2018-Nov-08 23:02N 50°58' E 001°51'0 0.0
2018-Nov-08 22:32N 50°58' E 001°51'0 0.0
2018-Nov-08 22:02N 50°58' E 001°51'0 0.0
2018-Nov-08 21:32N 50°58' E 001°51'0 0.0
2018-Nov-08 21:02N 50°58' E 001°51'0 0.0
2018-Nov-08 20:32N 50°58' E 001°51'713.7
2018-Nov-08 20:03N 50°59' E 001°40'918.3
2018-Nov-08 19:32N 51°04' E 001°28'611.9
2018-Nov-08 19:02N 51°07' E 001°20'0 0.0
2018-Nov-08 18:31N 51°07' E 001°20'4 7.6
2018-Nov-08 18:03N 51°07' E 001°26'918.0
2018-Nov-08 17:32N 51°02' E 001°38'917.8
2018-Nov-08 17:03N 50°58' E 001°51'0 0.4
2018-Nov-08 16:32N 50°58' E 001°51'0 0.9
2018-Nov-08 16:03N 50°58' E 001°50'816.8
2018-Nov-08 15:32N 50°60' E 001°37'1019.2
2018-Nov-08 15:03N 51°05' E 001°25'4 7.2
2018-Nov-08 14:32N 51°07' E 001°20'0 0.0
2018-Nov-08 14:02N 51°07' E 001°20'5 9.8
2018-Nov-08 13:32N 51°05' E 001°27'918.0
2018-Nov-08 13:03N 51°01' E 001°40'815.1
2018-Nov-08 12:32N 50°58' E 001°51'0 0.4
2018-Nov-08 12:03N 50°58' E 001°51'0 0.0
2018-Nov-08 11:33N 50°58' E 001°51'714.9
2018-Nov-08 11:03N 50°58' E 001°39'917.4
2018-Nov-08 10:32N 51°04' E 001°29'713.1
2018-Nov-08 10:02N 51°07' E 001°20'0 0.0
2018-Nov-08 09:32N 51°07' E 001°20'0 0.0
2018-Nov-08 09:02N 51°07' E 001°20'611.9
2018-Nov-08 08:33N 51°05' E 001°29'1019.6
2018-Nov-08 08:03N 50°59' E 001°41'612.3
2018-Nov-08 07:32N 50°58' E 001°51'0 0.0
2018-Nov-08 07:02N 50°58' E 001°51'1 2.5
2018-Nov-08 06:33N 50°58' E 001°49'816.7
2018-Nov-08 06:03N 51°00' E 001°36'1019.0
2018-Nov-08 05:33N 51°06' E 001°24'3 5.4
2018-Nov-08 05:01N 51°07' E 001°20'0 0.0
2018-Nov-08 04:29N 51°07' E 001°20'0 0.1
2018-Nov-08 04:02N 51°07' E 001°20'714.3
2018-Nov-08 03:33N 51°05' E 001°31'917.2
2018-Nov-08 03:02N 50°59' E 001°41'612.3
2018-Nov-08 02:32N 50°58' E 001°51'0 0.0
2018-Nov-08 02:02N 50°58' E 001°51'0 0.0
2018-Nov-08 01:32N 50°58' E 001°51'0 0.0
2018-Nov-08 01:02N 50°58' E 001°51'0 0.0
2018-Nov-08 00:43N 50°58' E 001°51'0 0.0
2018-Nov-08 00:32N 50°58' E 001°51'0 0.0
2018-Nov-08 00:28N 50°58' E 001°51'0 0.0
2018-Nov-08 00:02N 50°58' E 001°51'0 0.0
2018-Nov-07 23:33N 50°58' E 001°51'0 0.9
2018-Nov-07 23:02N 50°58' E 001°52'0 0.0
2018-Nov-07 22:32N 50°58' E 001°52'0 0.0
2018-Nov-07 22:02N 50°58' E 001°52'0 0.0
2018-Nov-07 21:32N 50°58' E 001°52'0 0.0
2018-Nov-07 21:02N 50°58' E 001°52'4 7.5
2018-Nov-07 20:33N 50°58' E 001°46'918.4
2018-Nov-07 20:03N 51°01' E 001°32'918.1
2018-Nov-07 19:33N 51°07' E 001°21'1 1.6
2018-Nov-07 19:02N 51°07' E 001°20'1 1.3
2018-Nov-07 18:33N 51°07' E 001°21'918.6
2018-Nov-07 18:03N 51°03' E 001°34'1019.0
2018-Nov-07 17:33N 50°58' E 001°47'2 4.8
2018-Nov-07 17:02N 50°58' E 001°51'0 0.1
2018-Nov-07 16:32N 50°58' E 001°51'714.9
2018-Nov-07 16:02N 50°58' E 001°39'918.6
2018-Nov-07 15:33N 51°03' E 001°27'612.3
2018-Nov-07 15:02N 51°07' E 001°20'0 0.0
2018-Nov-07 14:32N 51°07' E 001°20'0 0.1
2018-Nov-07 14:02N 51°07' E 001°20'611.5
2018-Nov-07 13:32N 51°06' E 001°29'918.2
2018-Nov-07 13:02N 51°01' E 001°41'714.2
2018-Nov-07 12:33N 50°58' E 001°51'0 0.2
2018-Nov-07 12:02N 50°58' E 001°51'1 2.5
2018-Nov-07 11:32N 50°58' E 001°49'918.6
2018-Nov-07 11:02N 51°01' E 001°35'918.0
2018-Nov-07 10:32N 51°06' E 001°23'2 4.4
2018-Nov-07 10:02N 51°07' E 001°20'0 0.0
2018-Nov-07 09:33N 51°07' E 001°20'0 0.1
2018-Nov-07 09:02N 51°07' E 001°20'612.5
2018-Nov-07 08:32N 51°05' E 001°30'1019.3
2018-Nov-07 08:02N 50°60' E 001°42'611.9
2018-Nov-07 07:33N 50°58' E 001°51'0 0.0
2018-Nov-07 07:02N 50°58' E 001°51'2 4.3
2018-Nov-07 06:32N 50°58' E 001°48'816.5
2018-Nov-07 06:02N 51°01' E 001°35'917.6
2018-Nov-07 05:32N 51°06' E 001°24'3 5.3
2018-Nov-07 05:02N 51°07' E 001°20'0 0.0
2018-Nov-07 04:31N 51°07' E 001°20'22 4.3
2018-Nov-06 23:30N 50°58' E 001°51'0 0.0
2018-Nov-06 23:03N 50°58' E 001°51'0 0.0
2018-Nov-06 23:00N 50°58' E 001°51'0 0.0
2018-Nov-06 22:00N 50°58' E 001°51'0 0.0
2018-Nov-06 21:30N 50°58' E 001°51'0 0.0
2018-Nov-06 21:03N 50°58' E 001°51'0 0.0
2018-Nov-06 21:00N 50°58' E 001°51'3 5.6
2018-Nov-06 20:30N 50°58' E 001°47'818.8
2018-Nov-06 20:03N 50°59' E 001°33'118.1
2018-Nov-06 20:01N 50°60' E 001°32'918.1
2018-Nov-06 19:31N 51°06' E 001°22'2 3.9
2018-Nov-06 19:03N 51°07' E 001°20'0 0.0
2018-Nov-06 19:00N 51°07' E 001°20'0 0.0
2018-Nov-06 18:30N 51°07' E 001°20'4 8.8
2018-Nov-06 18:04N 51°06' E 001°26'120.0
2018-Nov-06 18:01N 51°06' E 001°27'1019.9
2018-Nov-06 17:30N 51°00' E 001°41'715.2
2018-Nov-06 17:03N 50°58' E 001°51'0 1.1
2018-Nov-06 17:00N 50°58' E 001°51'0 0.0
2018-Nov-06 16:30N 50°58' E 001°51'1 1.6
2018-Nov-06 16:04N 50°58' E 001°50'114.3
2018-Nov-06 16:01N 50°58' E 001°49'917.4
2018-Nov-06 15:31N 50°59' E 001°35'818.5
2018-Nov-06 15:04N 51°04' E 001°25'119.0
2018-Nov-06 15:00N 51°05' E 001°24'3 6.8
2018-Nov-06 14:30N 51°07' E 001°20'0 0.0
2018-Nov-06 14:03N 51°07' E 001°20'0 0.0
2018-Nov-06 14:00N 51°07' E 001°20'4 7.2
2018-Nov-06 13:30N 51°06' E 001°26'818.6
2018-Nov-06 13:03N 51°03' E 001°38'118.6
2018-Nov-06 13:01N 51°03' E 001°39'816.6
2018-Nov-06 12:30N 50°58' E 001°50'0 1.1
2018-Nov-06 12:03N 50°58' E 001°51'0 0.0
2018-Nov-06 12:00N 50°58' E 001°51'0 0.0
2018-Nov-06 11:30N 50°58' E 001°51'716.6
2018-Nov-06 11:03N 50°59' E 001°39'120.6
2018-Nov-06 11:00N 50°59' E 001°38'918.7
2018-Nov-06 10:30N 51°05' E 001°26'410.0
2018-Nov-06 10:03N 51°07' E 001°20'0 0.0
2018-Nov-06 10:00N 51°07' E 001°20'0 0.0
2018-Nov-06 09:30N 51°07' E 001°20'3 5.7
2018-Nov-06 09:04N 51°07' E 001°24'119.0
2018-Nov-06 09:01N 51°06' E 001°25'1019.4
2018-Nov-06 08:31N 51°01' E 001°39'817.1
2018-Nov-06 08:04N 50°58' E 001°50'0 9.5
2018-Nov-06 08:00N 50°58' E 001°51'0 0.6
2018-Nov-06 07:31N 50°58' E 001°51'0 0.0
2018-Nov-06 07:03N 50°58' E 001°51'0 0.0
2018-Nov-06 07:01N 50°58' E 001°51'510.2
2018-Nov-06 06:30N 50°58' E 001°43'817.9
2018-Nov-06 06:03N 51°02' E 001°32'118.9
2018-Nov-06 06:00N 51°03' E 001°31'816.4
2018-Nov-06 05:30N 51°07' E 001°20'0 0.0
2018-Nov-06 05:02N 51°07' E 001°20'0 0.0
2018-Nov-06 05:00N 51°07' E 001°20'0 0.0
2018-Nov-06 04:30N 51°07' E 001°20'0 0.0
2018-Nov-06 04:03N 51°07' E 001°20'0 0.7
2018-Nov-06 04:00N 51°07' E 001°20'713.6
2018-Nov-06 03:30N 51°04' E 001°30'715.9
2018-Nov-06 03:03N 50°60' E 001°39'115.2
2018-Nov-06 03:00N 50°59' E 001°39'714.4
2018-Nov-06 02:31N 50°58' E 001°51'0 0.5
2018-Nov-06 02:03N 50°58' E 001°51'0 0.0
2018-Nov-06 02:00N 50°58' E 001°51'0 0.0
2018-Nov-06 01:30N 50°58' E 001°51'0 0.0
2018-Nov-06 00:30N 50°58' E 001°51'0 0.0
2018-Nov-05 23:30N 50°58' E 001°51'0 0.0
2018-Nov-05 23:03N 50°58' E 001°51'0 0.0
2018-Nov-05 23:00N 50°58' E 001°51'0 0.0
2018-Nov-05 22:30N 50°58' E 001°51'0 0.0
2018-Nov-05 22:03N 50°58' E 001°51'0 0.0
2018-Nov-05 22:00N 50°58' E 001°51'0 0.0
2018-Nov-05 21:31N 50°58' E 001°51'0 0.0
2018-Nov-05 21:03N 50°58' E 001°51'0 0.0
2018-Nov-05 21:00N 50°58' E 001°51'1 1.6
2018-Nov-05 20:31N 50°58' E 001°50'919.1
2018-Nov-05 20:04N 50°59' E 001°36'119.5
2018-Nov-05 20:01N 51°00' E 001°35'1019.2
2018-Nov-05 19:30N 51°06' E 001°23'2 5.1
2018-Nov-05 19:03N 51°07' E 001°20'0 0.0
2018-Nov-05 19:00N 51°07' E 001°20'0 0.0
2018-Nov-05 18:30N 51°07' E 001°20'613.9
2018-Nov-05 18:03N 51°05' E 001°29'120.0
2018-Nov-05 18:00N 51°04' E 001°30'1020.2
2018-Nov-05 17:30N 50°58' E 001°44'510.3
2018-Nov-05 17:04N 50°58' E 001°51'0 0.0
2018-Nov-05 17:00N 50°58' E 001°51'0 0.0
2018-Nov-05 16:31N 50°58' E 001°51'0 1.0
2018-Nov-05 16:04N 50°58' E 001°50'113.9
2018-Nov-05 16:00N 50°58' E 001°49'816.6
2018-Nov-05 15:31N 51°00' E 001°36'919.2
2018-Nov-05 15:04N 51°05' E 001°25'119.4
2018-Nov-05 15:01N 51°06' E 001°24'3 5.8
2018-Nov-05 14:30N 51°07' E 001°20'0 0.0
2018-Nov-05 13:58N 51°07' E 001°20'1213.0
2018-Nov-05 13:03N 51°02' E 001°37'119.3
2018-Nov-05 13:00N 51°01' E 001°38'917.0
2018-Nov-05 12:30N 50°58' E 001°51'0 0.6
2018-Nov-05 12:03N 50°58' E 001°51'0 0.0
2018-Nov-05 12:00N 50°58' E 001°51'0 0.0
2018-Nov-05 11:30N 50°58' E 001°51'614.5
2018-Nov-05 11:03N 50°58' E 001°41'121.6
2018-Nov-05 11:00N 50°59' E 001°39'1019.8
2018-Nov-05 10:30N 51°04' E 001°25'511.0
2018-Nov-05 10:03N 51°07' E 001°20'0 0.0
2018-Nov-05 10:00N 51°07' E 001°20'0 0.0
2018-Nov-05 09:30N 51°07' E 001°20'1 1.3
2018-Nov-05 09:03N 51°07' E 001°21'115.8
2018-Nov-05 09:01N 51°07' E 001°22'1019.1
2018-Nov-05 08:30N 51°02' E 001°35'818.5
2018-Nov-05 08:04N 50°58' E 001°47'117.5
2018-Nov-05 08:00N 50°58' E 001°48'2 4.4
2018-Nov-05 07:31N 50°58' E 001°52'0 0.0
2018-Nov-05 07:03N 50°58' E 001°52'0 0.0
2018-Nov-05 07:00N 50°58' E 001°52'0 0.0
2018-Nov-05 06:30N 50°58' E 001°52'0 0.0
2018-Nov-05 06:03N 50°58' E 001°52'0 0.0
2018-Nov-05 06:00N 50°58' E 001°52'0 0.0
2018-Nov-05 05:31N 50°58' E 001°52'0 0.0
2018-Nov-05 05:04N 50°58' E 001°52'0 0.0
2018-Nov-05 05:01N 50°58' E 001°52'0 0.0
2018-Nov-05 04:30N 50°58' E 001°52'0 0.0
2018-Nov-05 04:04N 50°58' E 001°52'0 0.0
2018-Nov-05 04:00N 50°58' E 001°52'0 0.0
2018-Nov-05 03:30N 50°58' E 001°52'0 0.0
2018-Nov-05 03:03N 50°58' E 001°52'0 0.0
2018-Nov-05 03:01N 50°58' E 001°52'0 0.0
2018-Nov-05 02:30N 50°58' E 001°52'0 0.0
2018-Nov-05 02:03N 50°58' E 001°52'0 0.0
2018-Nov-05 02:00N 50°58' E 001°52'0 0.0
2018-Nov-05 01:31N 50°58' E 001°52'0 0.0
2018-Nov-05 01:04N 50°58' E 001°52'0 0.0
2018-Nov-05 01:01N 50°58' E 001°52'0 0.0
2018-Nov-05 00:31N 50°58' E 001°52'0 0.0
2018-Nov-05 00:03N 50°58' E 001°52'0 0.0
2018-Nov-05 00:01N 50°58' E 001°52'0 0.0
2018-Nov-04 23:31N 50°58' E 001°52'0 0.0
2018-Nov-04 23:04N 50°58' E 001°52'0 0.0
2018-Nov-04 23:01N 50°58' E 001°52'0 0.0
2018-Nov-04 22:31N 50°58' E 001°52'0 0.0
2018-Nov-04 22:03N 50°58' E 001°52'0 0.0
2018-Nov-04 22:01N 50°58' E 001°52'0 0.0
2018-Nov-04 21:31N 50°58' E 001°52'0 0.0
2018-Nov-04 21:03N 50°58' E 001°52'0 0.0
2018-Nov-04 21:00N 50°58' E 001°52'0 0.0
2018-Nov-04 20:31N 50°58' E 001°52'613.5
2018-Nov-04 20:03N 50°58' E 001°42'120.0
2018-Nov-04 20:01N 50°59' E 001°41'1019.1
2018-Nov-04 19:31N 51°04' E 001°28'613.4
2018-Nov-04 19:04N 51°07' E 001°20'0 0.0
2018-Nov-04 18:59N 51°07' E 001°20'0 0.0
2018-Nov-04 18:30N 51°07' E 001°20'3 7.2
2018-Nov-04 18:04N 51°07' E 001°25'120.8
2018-Nov-04 18:01N 51°07' E 001°27'1718.2
2018-Nov-04 17:04N 50°58' E 001°51'0 2.3
2018-Nov-04 17:00N 50°58' E 001°51'0 0.2
2018-Nov-04 16:30N 50°58' E 001°51'0 1.0
2018-Nov-04 16:04N 50°58' E 001°50'110.8
2018-Nov-04 16:01N 50°58' E 001°50'816.8
2018-Nov-04 15:30N 50°60' E 001°36'919.0
2018-Nov-04 15:03N 51°05' E 001°25'118.9
2018-Nov-04 15:00N 51°05' E 001°24'3 6.6
2018-Nov-04 14:30N 51°07' E 001°20'0 0.0
2018-Nov-04 14:03N 51°07' E 001°20'0 0.0
2018-Nov-04 14:00N 51°07' E 001°20'4 7.5
2018-Nov-04 13:30N 51°06' E 001°26'919.5
2018-Nov-04 13:03N 51°01' E 001°37'119.2
2018-Nov-04 13:00N 51°01' E 001°39'816.1
2018-Nov-04 12:31N 50°58' E 001°51'0 0.5
2018-Nov-04 12:03N 50°58' E 001°51'0 0.0
2018-Nov-04 12:01N 50°58' E 001°51'0 0.0
2018-Nov-04 11:30N 50°58' E 001°51'511.1
2018-Nov-04 11:03N 50°58' E 001°43'120.9
2018-Nov-04 11:01N 50°58' E 001°41'1020.0
2018-Nov-04 10:31N 51°03' E 001°28'714.7
2018-Nov-04 10:03N 51°07' E 001°20'0 0.0
2018-Nov-04 10:00N 51°07' E 001°20'0 0.0
2018-Nov-04 09:30N 51°07' E 001°20'0 0.5
2018-Nov-04 09:03N 51°07' E 001°20'0 5.8
2018-Nov-04 09:00N 51°07' E 001°21'917.9
2018-Nov-04 08:31N 51°03' E 001°33'818.6
2018-Nov-04 08:03N 50°58' E 001°44'117.3
2018-Nov-04 08:01N 50°58' E 001°45'4 7.0
2018-Nov-04 07:30N 50°58' E 001°51'0 0.0
2018-Nov-04 07:03N 50°58' E 001°51'0 0.0
2018-Nov-04 07:00N 50°58' E 001°51'0 0.0
2018-Nov-04 06:30N 50°58' E 001°51'0 0.0
2018-Nov-04 06:03N 50°58' E 001°51'0 0.0
2018-Nov-04 06:00N 50°58' E 001°51'0 0.0
2018-Nov-04 05:30N 50°58' E 001°51'0 0.0
2018-Nov-04 05:03N 50°58' E 001°51'0 0.0
2018-Nov-04 05:00N 50°58' E 001°51'0 0.0
2018-Nov-04 04:30N 50°58' E 001°51'0 0.0
2018-Nov-04 04:03N 50°58' E 001°51'0 0.0
2018-Nov-04 04:00N 50°58' E 001°51'0 0.0
2018-Nov-04 03:30N 50°58' E 001°51'0 0.0
2018-Nov-04 03:03N 50°58' E 001°51'0 0.0
2018-Nov-04 03:00N 50°58' E 001°51'0 0.0
2018-Nov-04 02:30N 50°58' E 001°51'0 0.0
2018-Nov-04 02:03N 50°58' E 001°51'0 0.0
2018-Nov-04 02:00N 50°58' E 001°51'0 0.0
2018-Nov-04 01:30N 50°58' E 001°51'1 2.6
2018-Nov-04 01:03N 50°58' E 001°49'117.7
2018-Nov-04 01:00N 50°58' E 001°48'917.5
2018-Nov-04 00:30N 51°02' E 001°35'918.9
2018-Nov-04 00:03N 51°06' E 001°24'119.5
2018-Nov-04 00:00N 51°07' E 001°22'2 3.1
2018-Nov-03 23:30N 51°07' E 001°20'0 0.2
2018-Nov-03 23:03N 51°07' E 001°20'0 1.3
2018-Nov-03 23:00N 51°07' E 001°20'817.2
2018-Nov-03 22:30N 51°04' E 001°33'13 6.6
2018-Nov-03 20:30N 50°58' E 001°51'715.7
2018-Nov-03 20:03N 50°59' E 001°40'119.8
2018-Nov-03 20:01N 50°59' E 001°38'918.9
2018-Nov-03 19:30N 51°05' E 001°26'510.2
2018-Nov-03 19:03N 51°07' E 001°20'0 0.0
2018-Nov-03 19:00N 51°07' E 001°20'0 0.1
2018-Nov-03 18:29N 51°07' E 001°20'614.0
2018-Nov-03 18:04N 51°05' E 001°29'119.8
2018-Nov-03 18:01N 51°05' E 001°31'1019.5
2018-Nov-03 17:30N 50°59' E 001°43'511.3
2018-Nov-03 17:04N 50°58' E 001°51'0 0.0
2018-Nov-03 17:01N 50°58' E 001°51'0 0.0
2018-Nov-03 16:31N 50°58' E 001°51'1 2.4
2018-Nov-03 16:04N 50°58' E 001°49'118.1
2018-Nov-03 16:00N 50°58' E 001°48'917.7
2018-Nov-03 15:30N 51°01' E 001°35'818.8
2018-Nov-03 15:03N 51°06' E 001°24'118.6
2018-Nov-03 15:01N 51°06' E 001°23'2 3.8
2018-Nov-03 14:31N 51°07' E 001°20'0 0.0
2018-Nov-03 14:04N 51°07' E 001°20'0 0.0
2018-Nov-03 14:01N 51°07' E 001°20'3 6.3
2018-Nov-03 13:31N 51°07' E 001°25'818.8
2018-Nov-03 13:04N 51°02' E 001°36'119.5
2018-Nov-03 13:01N 51°02' E 001°37'917.7
2018-Nov-03 12:30N 50°58' E 001°51'0 0.9
2018-Nov-03 12:03N 50°58' E 001°51'0 0.0
2018-Nov-03 12:00N 50°58' E 001°51'0 0.4
2018-Nov-03 11:30N 50°58' E 001°51'716.3
2018-Nov-03 11:03N 50°59' E 001°39'118.9
2018-Nov-03 11:01N 50°60' E 001°38'918.9
2018-Nov-03 10:31N 51°05' E 001°26'4 9.5
2018-Nov-03 10:03N 51°07' E 001°20'0 0.0
2018-Nov-03 10:01N 51°07' E 001°20'0 0.0
2018-Nov-03 09:30N 51°07' E 001°20'1 1.3
2018-Nov-03 09:03N 51°07' E 001°21'113.1
2018-Nov-03 09:00N 51°07' E 001°22'918.5
2018-Nov-03 08:30N 51°02' E 001°35'818.3
2018-Nov-03 08:03N 50°58' E 001°46'117.3
2018-Nov-03 08:00N 50°58' E 001°47'2 4.9
2018-Nov-03 07:30N 50°58' E 001°51'0 0.0
2018-Nov-03 07:03N 50°58' E 001°51'0 0.0
2018-Nov-03 07:00N 50°58' E 001°51'4 7.1
2018-Nov-03 06:30N 50°58' E 001°45'919.4
2018-Nov-03 06:03N 51°01' E 001°32'119.1
2018-Nov-03 06:00N 51°01' E 001°31'917.6
2018-Nov-03 05:30N 51°07' E 001°20'0 0.5
2018-Nov-03 05:04N 51°07' E 001°20'0 0.0
2018-Nov-03 05:01N 51°07' E 001°20'0 0.0
2018-Nov-03 04:31N 51°07' E 001°20'0 0.0
2018-Nov-03 04:04N 51°07' E 001°20'0 0.3
2018-Nov-03 04:01N 51°07' E 001°20'612.3
2018-Nov-03 03:31N 51°04' E 001°28'716.2
2018-Nov-03 03:03N 51°00' E 001°38'116.8
2018-Nov-03 03:00N 50°60' E 001°39'714.6
2018-Nov-03 02:31N 50°58' E 001°51'0 0.5
2018-Nov-03 02:03N 50°58' E 001°51'0 0.0
2018-Nov-03 02:00N 50°58' E 001°51'0 0.0
2018-Nov-03 01:30N 50°58' E 001°51'0 0.0
2018-Nov-03 01:03N 50°58' E 001°51'0 0.0
2018-Nov-03 01:00N 50°58' E 001°51'0 0.0
2018-Nov-03 00:30N 50°58' E 001°51'0 0.0
2018-Nov-03 00:03N 50°58' E 001°51'0 0.0
2018-Nov-03 00:00N 50°58' E 001°51'0 0.0
2018-Nov-02 23:30N 50°58' E 001°51'0 0.0
2018-Nov-02 23:03N 50°58' E 001°51'0 0.0
2018-Nov-02 23:00N 50°58' E 001°51'0 0.0
2018-Nov-02 22:30N 50°58' E 001°51'0 0.0
2018-Nov-02 22:03N 50°58' E 001°51'0 0.0
2018-Nov-02 22:00N 50°58' E 001°51'0 0.0
2018-Nov-02 21:30N 50°58' E 001°51'0 0.0
2018-Nov-02 21:03N 50°58' E 001°51'0 0.0
2018-Nov-02 21:00N 50°58' E 001°51'0 0.1
2018-Nov-02 20:30N 50°58' E 001°51'715.5
2018-Nov-02 20:04N 50°58' E 001°40'117.7
2018-Nov-02 20:00N 50°59' E 001°39'917.1
2018-Nov-02 19:31N 51°04' E 001°27'613.1
2018-Nov-02 19:03N 51°07' E 001°20'0 0.0
2018-Nov-02 19:00N 51°07' E 001°20'0 0.0
2018-Nov-02 18:30N 51°07' E 001°20'1 2.9
2018-Nov-02 18:03N 51°07' E 001°22'118.6
2018-Nov-02 18:00N 51°07' E 001°24'1019.7
2018-Nov-02 17:30N 51°01' E 001°37'818.1
2018-Nov-02 17:03N 50°58' E 001°49'116.8
2018-Nov-02 17:00N 50°58' E 001°50'1 1.5
2018-Nov-02 16:30N 50°58' E 001°51'0 0.1
2018-Nov-02 16:03N 50°58' E 001°51'0 3.0
2018-Nov-02 16:01N 50°58' E 001°51'817.0
2018-Nov-02 15:31N 50°60' E 001°37'919.3
2018-Nov-02 15:04N 51°04' E 001°26'119.0
2018-Nov-02 15:01N 51°05' E 001°25'4 7.7
2018-Nov-02 14:30N 51°07' E 001°20'0 0.0
2018-Nov-02 14:00N 51°07' E 001°20'4 7.8
2018-Nov-02 13:30N 51°07' E 001°26'918.9
2018-Nov-02 13:03N 51°02' E 001°37'119.6
2018-Nov-02 13:00N 51°01' E 001°38'816.8
2018-Nov-02 12:30N 50°58' E 001°51'0 0.3
2018-Nov-02 12:03N 50°58' E 001°51'0 0.0
2018-Nov-02 12:00N 50°58' E 001°51'0 0.4
2018-Nov-02 11:30N 50°58' E 001°51'816.9
2018-Nov-02 11:03N 50°58' E 001°39'119.1
2018-Nov-02 11:00N 50°58' E 001°37'919.0
2018-Nov-02 10:30N 51°05' E 001°26'510.3
2018-Nov-02 10:03N 51°07' E 001°20'0 0.1
2018-Nov-02 10:01N 51°07' E 001°20'0 0.0
2018-Nov-02 09:30N 51°07' E 001°20'2 4.9
2018-Nov-02 09:04N 51°07' E 001°24'118.9
2018-Nov-02 09:01N 51°07' E 001°25'918.3
2018-Nov-02 08:30N 51°02' E 001°38'817.5
2018-Nov-02 08:04N 50°58' E 001°48'115.2
2018-Nov-02 08:01N 50°58' E 001°49'1 2.1
2018-Nov-02 07:30N 50°58' E 001°51'0 0.0
2018-Nov-02 07:03N 50°58' E 001°51'0 0.0
2018-Nov-02 07:00N 50°58' E 001°51'0 0.0
2018-Nov-02 06:30N 50°58' E 001°51'0 0.0
2018-Nov-02 06:04N 50°58' E 001°51'0 0.0
2018-Nov-02 06:00N 50°58' E 001°51'0 0.0
2018-Nov-02 05:30N 50°58' E 001°51'0 0.0
2018-Nov-02 05:03N 50°58' E 001°51'0 0.0
2018-Nov-02 05:00N 50°58' E 001°51'0 0.0
2018-Nov-02 04:30N 50°58' E 001°51'0 0.0
2018-Nov-02 04:03N 50°58' E 001°51'0 0.2
2018-Nov-02 04:01N 50°58' E 001°51'0 0.0
2018-Nov-02 03:30N 50°58' E 001°51'0 0.0
2018-Nov-02 03:03N 50°58' E 001°51'0 0.0
2018-Nov-02 03:00N 50°58' E 001°51'0 0.0
2018-Nov-02 02:30N 50°58' E 001°51'0 0.0
2018-Nov-02 02:03N 50°58' E 001°51'0 0.0
2018-Nov-02 02:00N 50°58' E 001°51'0 0.0
2018-Nov-02 01:30N 50°58' E 001°51'0 0.0
2018-Nov-02 01:03N 50°58' E 001°51'0 0.0
2018-Nov-02 01:00N 50°58' E 001°51'0 0.0
2018-Nov-02 00:56N 50°58' E 001°51'0 0.0
2018-Nov-02 00:36N 50°58' E 001°51'0 0.0
2018-Nov-02 00:30N 50°58' E 001°51'0 0.0
2018-Nov-02 00:03N 50°58' E 001°51'0 0.0
2018-Nov-02 00:00N 50°58' E 001°51'0 0.0
2018-Nov-01 23:30N 50°58' E 001°51'0 0.0
2018-Nov-01 23:03N 50°58' E 001°51'0 0.0
2018-Nov-01 23:00N 50°58' E 001°51'0 0.0
2018-Nov-01 22:31N 50°58' E 001°51'0 0.0
2018-Nov-01 22:03N 50°58' E 001°51'0 0.0
2018-Nov-01 22:00N 50°58' E 001°51'0 0.0
2018-Nov-01 21:30N 50°58' E 001°51'4 9.0
2018-Nov-01 21:03N 50°58' E 001°45'116.5
2018-Nov-01 21:01N 50°58' E 001°43'815.2
2018-Nov-01 20:31N 51°01' E 001°32'817.7
2018-Nov-01 20:03N 51°06' E 001°23'117.6
2018-Nov-01 20:00N 51°07' E 001°22'1 2.3
2018-Nov-01 19:30N 51°07' E 001°20'0 0.3
2018-Nov-01 19:03N 51°07' E 001°20'0 0.7
2018-Nov-01 19:01N 51°07' E 001°20'714.7
2018-Nov-01 18:31N 51°06' E 001°32'716.5
2018-Nov-01 18:03N 51°02' E 001°41'117.0
2018-Nov-01 18:00N 51°01' E 001°42'613.0
2018-Nov-01 17:31N 50°58' E 001°51'0 0.2
2018-Nov-01 17:03N 50°58' E 001°51'0 0.0
2018-Nov-01 17:00N 50°58' E 001°51'2 3.9
2018-Nov-01 16:30N 50°58' E 001°48'817.6
2018-Nov-01 16:04N 51°00' E 001°36'117.5
2018-Nov-01 16:01N 51°01' E 001°35'816.9
2018-Nov-01 15:31N 51°06' E 001°24'3 6.4
2018-Nov-01 15:03N 51°07' E 001°20'0 0.0
2018-Nov-01 15:00N 51°07' E 001°20'3 3.3
2018-Nov-01 14:04N 51°07' E 001°25'117.5
2018-Nov-01 14:00N 51°06' E 001°26'917.5
2018-Nov-01 13:30N 51°02' E 001°38'716.4
2018-Nov-01 13:03N 50°58' E 001°49'115.8
2018-Nov-01 13:00N 50°58' E 001°50'1 1.5
2018-Nov-01 12:30N 50°58' E 001°51'0 0.0
2018-Nov-01 12:03N 50°58' E 001°51'0 0.0
2018-Nov-01 12:00N 50°58' E 001°51'611.7
2018-Nov-01 11:30N 50°58' E 001°42'816.8
2018-Nov-01 11:03N 51°02' E 001°31'116.9
2018-Nov-01 11:00N 51°02' E 001°30'815.9
2018-Nov-01 10:31N 51°07' E 001°20'0 0.4
2018-Nov-01 10:03N 51°07' E 001°20'0 0.0
2018-Nov-01 10:00N 51°07' E 001°20'0 0.4
2018-Nov-01 09:30N 51°07' E 001°20'511.3
2018-Nov-01 09:04N 51°06' E 001°28'117.2
2018-Nov-01 09:01N 51°06' E 001°29'917.4
2018-Nov-01 08:31N 51°01' E 001°40'715.5
2018-Nov-01 08:03N 50°58' E 001°50'0 3.8
2018-Nov-01 08:00N 50°58' E 001°51'0 0.4
2018-Nov-01 07:30N 50°58' E 001°51'0 0.0
2018-Nov-01 07:03N 50°58' E 001°51'0 0.0
2018-Nov-01 07:00N 50°58' E 001°51'612.8
2018-Nov-01 06:30N 50°58' E 001°41'714.9
2018-Nov-01 06:04N 51°02' E 001°32'116.3
2018-Nov-01 06:00N 51°02' E 001°31'816.1
2018-Nov-01 05:30N 51°07' E 001°21'0 1.0
2018-Nov-01 05:03N 51°07' E 001°20'0 0.0
2018-Nov-01 05:00N 51°07' E 001°20'0 0.0
2018-Nov-01 04:30N 51°07' E 001°20'0 0.4
2018-Nov-01 04:03N 51°07' E 001°20'110.9
2018-Nov-01 04:01N 51°07' E 001°21'816.5
2018-Nov-01 03:30N 51°03' E 001°33'817.7
2018-Nov-01 03:04N 50°59' E 001°43'116.9
2018-Nov-01 03:00N 50°58' E 001°44'  
Track history (hours):
 
Tides and Currents Weather Stations Pressure Air Temp Water Temp Dewpoint Dewpoint Depression Visibility Wind Speed Wind Dir Waves Ship Positions

Pride Of Burgundy

Operator: P & O Ferries

Last reported at 2018-Nov-11 02:32 UTC. Time now 2018-Nov-13 07:32 UTC.
Position N 50°58' E 001°51'.

Length 180 m; draft 6.2 m.

Type: Passenger vessel. MMSI: 232001470.

Date/timePositionNaut miles runAvg speedWind from/ knotsBaromVisibWave heightAir tempDewpointWater temp
2018-Nov-11 02:32N 50°58' E 001°51'0 0.0
2018-Nov-11 02:02N 50°58' E 001°51'0 0.0
2018-Nov-11 01:32N 50°58' E 001°51'0 0.0
2018-Nov-11 01:02N 50°58' E 001°51'0 0.0
2018-Nov-11 00:32N 50°58' E 001°51'0 0.0
2018-Nov-11 00:02N 50°58' E 001°51'0 0.0
2018-Nov-10 23:32N 50°58' E 001°51'0 0.0
2018-Nov-10 23:02N 50°58' E 001°51'0 0.0
2018-Nov-10 22:32N 50°58' E 001°51'0 0.0
2018-Nov-10 22:02N 50°58' E 001°51'0 0.0
2018-Nov-10 21:32N 50°58' E 001°51'0 0.0
2018-Nov-10 21:02N 50°58' E 001°51'0 0.0
2018-Nov-10 20:32N 50°58' E 001°51'611.9
2018-Nov-10 20:03N 50°58' E 001°42'918.3
2018-Nov-10 19:33N 51°03' E 001°29'713.9
2018-Nov-10 19:02N 51°07' E 001°20'0 0.0
2018-Nov-10 18:31N 51°07' E 001°20'4 9.3
2018-Nov-10 18:02N 51°06' E 001°27'1019.6
2018-Nov-10 17:32N 51°01' E 001°40'714.8
2018-Nov-10 17:02N 50°58' E 001°51'0 0.0
2018-Nov-10 16:32N 50°58' E 001°51'5 9.5
2018-Nov-10 16:02N 50°58' E 001°43'918.9
2018-Nov-10 15:32N 51°03' E 001°31'816.0
2018-Nov-10 15:02N 51°07' E 001°20'0 0.0
2018-Nov-10 14:32N 51°07' E 001°20'0 0.2
2018-Nov-10 14:01N 51°07' E 001°20'612.4
2018-Nov-10 13:33N 51°07' E 001°29'917.3
2018-Nov-10 13:02N 51°02' E 001°40'815.0
2018-Nov-10 12:32N 50°58' E 001°51'0 0.5
2018-Nov-10 12:02N 50°58' E 001°51'0 0.1
2018-Nov-10 11:32N 50°58' E 001°51'917.2
2018-Nov-10 11:02N 50°59' E 001°37'917.2
2018-Nov-10 10:32N 51°05' E 001°28'510.8
2018-Nov-10 10:02N 51°07' E 001°20'0 0.0
2018-Nov-10 09:33N 51°07' E 001°20'1 1.7
2018-Nov-10 09:02N 51°07' E 001°21'816.0
2018-Nov-10 08:32N 51°04' E 001°33'1019.0
2018-Nov-10 08:02N 50°58' E 001°45'4 8.4
2018-Nov-10 07:32N 50°58' E 001°52'0 0.0
2018-Nov-10 07:02N 50°58' E 001°52'1 2.9
2018-Nov-10 06:33N 50°58' E 001°49'816.7
2018-Nov-10 06:02N 51°01' E 001°37'919.0
2018-Nov-10 05:32N 51°06' E 001°24'3 5.6
2018-Nov-10 05:02N 51°07' E 001°20'0 0.0
2018-Nov-10 04:32N 51°07' E 001°20'1 1.5
2018-Nov-10 04:02N 51°07' E 001°21'815.7
2018-Nov-10 03:32N 51°04' E 001°33'918.1
2018-Nov-10 03:02N 50°59' E 001°44'4 8.8
2018-Nov-10 02:32N 50°58' E 001°51'0 0.0
2018-Nov-10 02:02N 50°58' E 001°51'0 0.0
2018-Nov-10 01:32N 50°58' E 001°51'0 0.0
2018-Nov-10 01:02N 50°58' E 001°51'0 0.0
2018-Nov-10 00:32N 50°58' E 001°51'0 0.0
2018-Nov-10 00:02N 50°58' E 001°51'0 0.0
2018-Nov-09 23:32N 50°58' E 001°51'0 0.0
2018-Nov-09 23:02N 50°58' E 001°51'0 0.0
2018-Nov-09 22:32N 50°58' E 001°51'0 0.0
2018-Nov-09 22:02N 50°58' E 001°51'0 0.0
2018-Nov-09 21:32N 50°58' E 001°51'0 0.0
2018-Nov-09 21:02N 50°58' E 001°51'2 3.9
2018-Nov-09 20:32N 50°58' E 001°48'816.9
2018-Nov-09 20:03N 51°01' E 001°35'917.6
2018-Nov-09 19:32N 51°06' E 001°24'3 5.1
2018-Nov-09 19:00N 51°07' E 001°20'0 0.3
2018-Nov-09 18:32N 51°07' E 001°20'510.1
2018-Nov-09 18:03N 51°05' E 001°28'815.9
2018-Nov-09 17:32N 51°01' E 001°38'917.2
2018-Nov-09 17:03N 50°58' E 001°51'0 0.3
2018-Nov-09 16:32N 50°58' E 001°51'3 6.6
2018-Nov-09 16:03N 50°58' E 001°46'918.8
2018-Nov-09 15:32N 51°02' E 001°32'918.3
2018-Nov-09 15:03N 51°07' E 001°21'0 0.6
2018-Nov-09 14:32N 51°07' E 001°20'0 0.7
2018-Nov-09 14:03N 51°07' E 001°21'815.8
2018-Nov-09 13:32N 51°06' E 001°33'917.5
2018-Nov-09 13:03N 50°59' E 001°42'612.4
2018-Nov-09 12:32N 50°58' E 001°52'0 0.2
2018-Nov-09 12:01N 50°58' E 001°52'0 0.0
2018-Nov-09 11:32N 50°58' E 001°52'816.0
2018-Nov-09 11:02N 50°58' E 001°39'918.4
2018-Nov-09 10:32N 51°03' E 001°27'611.9
2018-Nov-09 10:02N 51°07' E 001°20'0 0.0
2018-Nov-09 09:32N 51°07' E 001°20'0 0.3
2018-Nov-09 09:03N 51°07' E 001°20'815.4
2018-Nov-09 08:32N 51°04' E 001°31'1020.1
2018-Nov-09 08:02N 50°58' E 001°44'4 8.2
2018-Nov-09 07:33N 50°58' E 001°51'0 0.0
2018-Nov-09 07:02N 50°58' E 001°51'2 3.5
2018-Nov-09 06:33N 50°58' E 001°48'816.9
2018-Nov-09 06:02N 50°59' E 001°35'918.6
2018-Nov-09 05:32N 51°06' E 001°24'3 6.2
2018-Nov-09 05:02N 51°07' E 001°20'0 0.0
2018-Nov-09 04:32N 51°07' E 001°20'0 0.0
2018-Nov-09 04:02N 51°07' E 001°20'3 6.5
2018-Nov-09 03:33N 51°06' E 001°25'1019.7
2018-Nov-09 03:02N 51°01' E 001°38'917.1
2018-Nov-09 02:32N 50°58' E 001°51'0 0.3
2018-Nov-09 02:02N 50°58' E 001°51'0 0.0
2018-Nov-09 01:32N 50°58' E 001°51'0 0.0
2018-Nov-09 01:02N 50°58' E 001°51'0 0.0
2018-Nov-09 00:32N 50°58' E 001°51'0 0.0
2018-Nov-09 00:03N 50°58' E 001°51'0 0.0
2018-Nov-08 23:32N 50°58' E 001°51'0 0.0
2018-Nov-08 23:02N 50°58' E 001°51'0 0.0
2018-Nov-08 22:32N 50°58' E 001°51'0 0.0
2018-Nov-08 22:02N 50°58' E 001°51'0 0.0
2018-Nov-08 21:32N 50°58' E 001°51'0 0.0
2018-Nov-08 21:02N 50°58' E 001°51'0 0.0
2018-Nov-08 20:32N 50°58' E 001°51'713.7
2018-Nov-08 20:03N 50°59' E 001°40'918.3
2018-Nov-08 19:32N 51°04' E 001°28'611.9
2018-Nov-08 19:02N 51°07' E 001°20'0 0.0
2018-Nov-08 18:31N 51°07' E 001°20'4 7.6
2018-Nov-08 18:03N 51°07' E 001°26'918.0
2018-Nov-08 17:32N 51°02' E 001°38'917.8
2018-Nov-08 17:03N 50°58' E 001°51'0 0.4
2018-Nov-08 16:32N 50°58' E 001°51'0 0.9
2018-Nov-08 16:03N 50°58' E 001°50'816.8
2018-Nov-08 15:32N 50°60' E 001°37'1019.2
2018-Nov-08 15:03N 51°05' E 001°25'4 7.2
2018-Nov-08 14:32N 51°07' E 001°20'0 0.0
2018-Nov-08 14:02N 51°07' E 001°20'5 9.8
2018-Nov-08 13:32N 51°05' E 001°27'918.0
2018-Nov-08 13:03N 51°01' E 001°40'815.1
2018-Nov-08 12:32N 50°58' E 001°51'0 0.4
2018-Nov-08 12:03N 50°58' E 001°51'0 0.0
2018-Nov-08 11:33N 50°58' E 001°51'714.9
2018-Nov-08 11:03N 50°58' E 001°39'917.4
2018-Nov-08 10:32N 51°04' E 001°29'713.1
2018-Nov-08 10:02N 51°07' E 001°20'0 0.0
2018-Nov-08 09:32N 51°07' E 001°20'0 0.0
2018-Nov-08 09:02N 51°07' E 001°20'611.9
2018-Nov-08 08:33N 51°05' E 001°29'1019.6
2018-Nov-08 08:03N 50°59' E 001°41'612.3
2018-Nov-08 07:32N 50°58' E 001°51'0 0.0
2018-Nov-08 07:02N 50°58' E 001°51'1 2.5
2018-Nov-08 06:33N 50°58' E 001°49'816.7
2018-Nov-08 06:03N 51°00' E 001°36'1019.0
2018-Nov-08 05:33N 51°06' E 001°24'3 5.4
2018-Nov-08 05:01N 51°07' E 001°20'0 0.0
2018-Nov-08 04:29N 51°07' E 001°20'0 0.1
2018-Nov-08 04:02N 51°07' E 001°20'714.3
2018-Nov-08 03:33N 51°05' E 001°31'917.2
2018-Nov-08 03:02N 50°59' E 001°41'612.3
2018-Nov-08 02:32N 50°58' E 001°51'0 0.0
2018-Nov-08 02:02N 50°58' E 001°51'0 0.0
2018-Nov-08 01:32N 50°58' E 001°51'0 0.0
2018-Nov-08 01:02N 50°58' E 001°51'0 0.0
2018-Nov-08 00:43N 50°58' E 001°51'0 0.0
2018-Nov-08 00:32N 50°58' E 001°51'0 0.0
2018-Nov-08 00:28N 50°58' E 001°51'0 0.0
2018-Nov-08 00:02N 50°58' E 001°51'0 0.0
2018-Nov-07 23:33N 50°58' E 001°51'0 0.9
2018-Nov-07 23:02N 50°58' E 001°52'0 0.0
2018-Nov-07 22:32N 50°58' E 001°52'0 0.0
2018-Nov-07 22:02N 50°58' E 001°52'0 0.0
2018-Nov-07 21:32N 50°58' E 001°52'0 0.0
2018-Nov-07 21:02N 50°58' E 001°52'4 7.5
2018-Nov-07 20:33N 50°58' E 001°46'918.4
2018-Nov-07 20:03N 51°01' E 001°32'918.1
2018-Nov-07 19:33N 51°07' E 001°21'1 1.6
2018-Nov-07 19:02N 51°07' E 001°20'1 1.3
2018-Nov-07 18:33N 51°07' E 001°21'918.6
2018-Nov-07 18:03N 51°03' E 001°34'1019.0
2018-Nov-07 17:33N 50°58' E 001°47'2 4.8
2018-Nov-07 17:02N 50°58' E 001°51'0 0.1
2018-Nov-07 16:32N 50°58' E 001°51'714.9
2018-Nov-07 16:02N 50°58' E 001°39'918.6
2018-Nov-07 15:33N 51°03' E 001°27'612.3
2018-Nov-07 15:02N 51°07' E 001°20'0 0.0
2018-Nov-07 14:32N 51°07' E 001°20'0 0.1
2018-Nov-07 14:02N 51°07' E 001°20'611.5
2018-Nov-07 13:32N 51°06' E 001°29'918.2
2018-Nov-07 13:02N 51°01' E 001°41'714.2
2018-Nov-07 12:33N 50°58' E 001°51'0 0.2
2018-Nov-07 12:02N 50°58' E 001°51'1 2.5
2018-Nov-07 11:32N 50°58' E 001°49'918.6
2018-Nov-07 11:02N 51°01' E 001°35'918.0
2018-Nov-07 10:32N 51°06' E 001°23'2 4.4
2018-Nov-07 10:02N 51°07' E 001°20'0 0.0
2018-Nov-07 09:33N 51°07' E 001°20'0 0.1
2018-Nov-07 09:02N 51°07' E 001°20'612.5
2018-Nov-07 08:32N 51°05' E 001°30'1019.3
2018-Nov-07 08:02N 50°60' E 001°42'611.9
2018-Nov-07 07:33N 50°58' E 001°51'0 0.0
2018-Nov-07 07:02N 50°58' E 001°51'2 4.3
2018-Nov-07 06:32N 50°58' E 001°48'816.5
2018-Nov-07 06:02N 51°01' E 001°35'917.6
2018-Nov-07 05:32N 51°06' E 001°24'3 5.3
2018-Nov-07 05:02N 51°07' E 001°20'0 0.0
2018-Nov-07 04:31N 51°07' E 001°20'22 4.3
2018-Nov-06 23:30N 50°58' E 001°51'0 0.0
2018-Nov-06 23:03N 50°58' E 001°51'0 0.0
2018-Nov-06 23:00N 50°58' E 001°51'0 0.0
2018-Nov-06 22:00N 50°58' E 001°51'0 0.0
2018-Nov-06 21:30N 50°58' E 001°51'0 0.0
2018-Nov-06 21:03N 50°58' E 001°51'0 0.0
2018-Nov-06 21:00N 50°58' E 001°51'3 5.6
2018-Nov-06 20:30N 50°58' E 001°47'818.8
2018-Nov-06 20:03N 50°59' E 001°33'118.1
2018-Nov-06 20:01N 50°60' E 001°32'918.1
2018-Nov-06 19:31N 51°06' E 001°22'2 3.9
2018-Nov-06 19:03N 51°07' E 001°20'0 0.0
2018-Nov-06 19:00N 51°07' E 001°20'0 0.0
2018-Nov-06 18:30N 51°07' E 001°20'4 8.8
2018-Nov-06 18:04N 51°06' E 001°26'120.0
2018-Nov-06 18:01N 51°06' E 001°27'1019.9
2018-Nov-06 17:30N 51°00' E 001°41'715.2
2018-Nov-06 17:03N 50°58' E 001°51'0 1.1
2018-Nov-06 17:00N 50°58' E 001°51'0 0.0
2018-Nov-06 16:30N 50°58' E 001°51'1 1.6
2018-Nov-06 16:04N 50°58' E 001°50'114.3
2018-Nov-06 16:01N 50°58' E 001°49'917.4
2018-Nov-06 15:31N 50°59' E 001°35'818.5
2018-Nov-06 15:04N 51°04' E 001°25'119.0
2018-Nov-06 15:00N 51°05' E 001°24'3 6.8
2018-Nov-06 14:30N 51°07' E 001°20'0 0.0
2018-Nov-06 14:03N 51°07' E 001°20'0 0.0
2018-Nov-06 14:00N 51°07' E 001°20'4 7.2
2018-Nov-06 13:30N 51°06' E 001°26'818.6
2018-Nov-06 13:03N 51°03' E 001°38'118.6
2018-Nov-06 13:01N 51°03' E 001°39'816.6
2018-Nov-06 12:30N 50°58' E 001°50'0 1.1
2018-Nov-06 12:03N 50°58' E 001°51'0 0.0
2018-Nov-06 12:00N 50°58' E 001°51'0 0.0
2018-Nov-06 11:30N 50°58' E 001°51'716.6
2018-Nov-06 11:03N 50°59' E 001°39'120.6
2018-Nov-06 11:00N 50°59' E 001°38'918.7
2018-Nov-06 10:30N 51°05' E 001°26'410.0
2018-Nov-06 10:03N 51°07' E 001°20'0 0.0
2018-Nov-06 10:00N 51°07' E 001°20'0 0.0
2018-Nov-06 09:30N 51°07' E 001°20'3 5.7
2018-Nov-06 09:04N 51°07' E 001°24'119.0
2018-Nov-06 09:01N 51°06' E 001°25'1019.4
2018-Nov-06 08:31N 51°01' E 001°39'817.1
2018-Nov-06 08:04N 50°58' E 001°50'0 9.5
2018-Nov-06 08:00N 50°58' E 001°51'0 0.6
2018-Nov-06 07:31N 50°58' E 001°51'0 0.0
2018-Nov-06 07:03N 50°58' E 001°51'0 0.0
2018-Nov-06 07:01N 50°58' E 001°51'510.2
2018-Nov-06 06:30N 50°58' E 001°43'817.9
2018-Nov-06 06:03N 51°02' E 001°32'118.9
2018-Nov-06 06:00N 51°03' E 001°31'816.4
2018-Nov-06 05:30N 51°07' E 001°20'0 0.0
2018-Nov-06 05:02N 51°07' E 001°20'0 0.0
2018-Nov-06 05:00N 51°07' E 001°20'0 0.0
2018-Nov-06 04:30N 51°07' E 001°20'0 0.0
2018-Nov-06 04:03N 51°07' E 001°20'0 0.7
2018-Nov-06 04:00N 51°07' E 001°20'713.6
2018-Nov-06 03:30N 51°04' E 001°30'715.9
2018-Nov-06 03:03N 50°60' E 001°39'115.2
2018-Nov-06 03:00N 50°59' E 001°39'714.4
2018-Nov-06 02:31N 50°58' E 001°51'0 0.5
2018-Nov-06 02:03N 50°58' E 001°51'0 0.0
2018-Nov-06 02:00N 50°58' E 001°51'0 0.0
2018-Nov-06 01:30N 50°58' E 001°51'0 0.0
2018-Nov-06 00:30N 50°58' E 001°51'0 0.0
2018-Nov-05 23:30N 50°58' E 001°51'0 0.0
2018-Nov-05 23:03N 50°58' E 001°51'0 0.0
2018-Nov-05 23:00N 50°58' E 001°51'0 0.0
2018-Nov-05 22:30N 50°58' E 001°51'0 0.0
2018-Nov-05 22:03N 50°58' E 001°51'0 0.0
2018-Nov-05 22:00N 50°58' E 001°51'0 0.0
2018-Nov-05 21:31N 50°58' E 001°51'0 0.0
2018-Nov-05 21:03N 50°58' E 001°51'0 0.0
2018-Nov-05 21:00N 50°58' E 001°51'1 1.6
2018-Nov-05 20:31N 50°58' E 001°50'919.1
2018-Nov-05 20:04N 50°59' E 001°36'119.5
2018-Nov-05 20:01N 51°00' E 001°35'1019.2
2018-Nov-05 19:30N 51°06' E 001°23'2 5.1
2018-Nov-05 19:03N 51°07' E 001°20'0 0.0
2018-Nov-05 19:00N 51°07' E 001°20'0 0.0
2018-Nov-05 18:30N 51°07' E 001°20'613.9
2018-Nov-05 18:03N 51°05' E 001°29'120.0
2018-Nov-05 18:00N 51°04' E 001°30'1020.2
2018-Nov-05 17:30N 50°58' E 001°44'510.3
2018-Nov-05 17:04N 50°58' E 001°51'0 0.0
2018-Nov-05 17:00N 50°58' E 001°51'0 0.0
2018-Nov-05 16:31N 50°58' E 001°51'0 1.0
2018-Nov-05 16:04N 50°58' E 001°50'113.9
2018-Nov-05 16:00N 50°58' E 001°49'816.6
2018-Nov-05 15:31N 51°00' E 001°36'919.2
2018-Nov-05 15:04N 51°05' E 001°25'119.4
2018-Nov-05 15:01N 51°06' E 001°24'3 5.8
2018-Nov-05 14:30N 51°07' E 001°20'0 0.0
2018-Nov-05 13:58N 51°07' E 001°20'1213.0
2018-Nov-05 13:03N 51°02' E 001°37'119.3
2018-Nov-05 13:00N 51°01' E 001°38'917.0
2018-Nov-05 12:30N 50°58' E 001°51'0 0.6
2018-Nov-05 12:03N 50°58' E 001°51'0 0.0
2018-Nov-05 12:00N 50°58' E 001°51'0 0.0
2018-Nov-05 11:30N 50°58' E 001°51'614.5
2018-Nov-05 11:03N 50°58' E 001°41'121.6
2018-Nov-05 11:00N 50°59' E 001°39'1019.8
2018-Nov-05 10:30N 51°04' E 001°25'511.0
2018-Nov-05 10:03N 51°07' E 001°20'0 0.0
2018-Nov-05 10:00N 51°07' E 001°20'0 0.0
2018-Nov-05 09:30N 51°07' E 001°20'1 1.3
2018-Nov-05 09:03N 51°07' E 001°21'115.8
2018-Nov-05 09:01N 51°07' E 001°22'1019.1
2018-Nov-05 08:30N 51°02' E 001°35'818.5
2018-Nov-05 08:04N 50°58' E 001°47'117.5
2018-Nov-05 08:00N 50°58' E 001°48'2 4.4
2018-Nov-05 07:31N 50°58' E 001°52'0 0.0
2018-Nov-05 07:03N 50°58' E 001°52'0 0.0
2018-Nov-05 07:00N 50°58' E 001°52'0 0.0
2018-Nov-05 06:30N 50°58' E 001°52'0 0.0
2018-Nov-05 06:03N 50°58' E 001°52'0 0.0
2018-Nov-05 06:00N 50°58' E 001°52'0 0.0
2018-Nov-05 05:31N 50°58' E 001°52'0 0.0
2018-Nov-05 05:04N 50°58' E 001°52'0 0.0
2018-Nov-05 05:01N 50°58' E 001°52'0 0.0
2018-Nov-05 04:30N 50°58' E 001°52'0 0.0
2018-Nov-05 04:04N 50°58' E 001°52'0 0.0
2018-Nov-05 04:00N 50°58' E 001°52'0 0.0
2018-Nov-05 03:30N 50°58' E 001°52'0 0.0
2018-Nov-05 03:03N 50°58' E 001°52'0 0.0
2018-Nov-05 03:01N 50°58' E 001°52'0 0.0
2018-Nov-05 02:30N 50°58' E 001°52'0 0.0
2018-Nov-05 02:03N 50°58' E 001°52'0 0.0
2018-Nov-05 02:00N 50°58' E 001°52'0 0.0
2018-Nov-05 01:31N 50°58' E 001°52'0 0.0
2018-Nov-05 01:04N 50°58' E 001°52'0 0.0
2018-Nov-05 01:01N 50°58' E 001°52'0 0.0
2018-Nov-05 00:31N 50°58' E 001°52'0 0.0
2018-Nov-05 00:03N 50°58' E 001°52'0 0.0
2018-Nov-05 00:01N 50°58' E 001°52'0 0.0
2018-Nov-04 23:31N 50°58' E 001°52'0 0.0
2018-Nov-04 23:04N 50°58' E 001°52'0 0.0
2018-Nov-04 23:01N 50°58' E 001°52'0 0.0
2018-Nov-04 22:31N 50°58' E 001°52'0 0.0
2018-Nov-04 22:03N 50°58' E 001°52'0 0.0
2018-Nov-04 22:01N 50°58' E 001°52'0 0.0
2018-Nov-04 21:31N 50°58' E 001°52'0 0.0
2018-Nov-04 21:03N 50°58' E 001°52'0 0.0
2018-Nov-04 21:00N 50°58' E 001°52'0 0.0
2018-Nov-04 20:31N 50°58' E 001°52'613.5
2018-Nov-04 20:03N 50°58' E 001°42'120.0
2018-Nov-04 20:01N 50°59' E 001°41'1019.1
2018-Nov-04 19:31N 51°04' E 001°28'613.4
2018-Nov-04 19:04N 51°07' E 001°20'0 0.0
2018-Nov-04 18:59N 51°07' E 001°20'0 0.0
2018-Nov-04 18:30N 51°07' E 001°20'3 7.2
2018-Nov-04 18:04N 51°07' E 001°25'120.8
2018-Nov-04 18:01N 51°07' E 001°27'1718.2
2018-Nov-04 17:04N 50°58' E 001°51'0 2.3
2018-Nov-04 17:00N 50°58' E 001°51'0 0.2
2018-Nov-04 16:30N 50°58' E 001°51'0 1.0
2018-Nov-04 16:04N 50°58' E 001°50'110.8
2018-Nov-04 16:01N 50°58' E 001°50'816.8
2018-Nov-04 15:30N 50°60' E 001°36'919.0
2018-Nov-04 15:03N 51°05' E 001°25'118.9
2018-Nov-04 15:00N 51°05' E 001°24'3 6.6
2018-Nov-04 14:30N 51°07' E 001°20'0 0.0
2018-Nov-04 14:03N 51°07' E 001°20'0 0.0
2018-Nov-04 14:00N 51°07' E 001°20'4 7.5
2018-Nov-04 13:30N 51°06' E 001°26'919.5
2018-Nov-04 13:03N 51°01' E 001°37'119.2
2018-Nov-04 13:00N 51°01' E 001°39'816.1
2018-Nov-04 12:31N 50°58' E 001°51'0 0.5
2018-Nov-04 12:03N 50°58' E 001°51'0 0.0
2018-Nov-04 12:01N 50°58' E 001°51'0 0.0
2018-Nov-04 11:30N 50°58' E 001°51'511.1
2018-Nov-04 11:03N 50°58' E 001°43'120.9
2018-Nov-04 11:01N 50°58' E 001°41'1020.0
2018-Nov-04 10:31N 51°03' E 001°28'714.7
2018-Nov-04 10:03N 51°07' E 001°20'0 0.0
2018-Nov-04 10:00N 51°07' E 001°20'0 0.0
2018-Nov-04 09:30N 51°07' E 001°20'0 0.5
2018-Nov-04 09:03N 51°07' E 001°20'0 5.8
2018-Nov-04 09:00N 51°07' E 001°21'917.9
2018-Nov-04 08:31N 51°03' E 001°33'818.6
2018-Nov-04 08:03N 50°58' E 001°44'117.3
2018-Nov-04 08:01N 50°58' E 001°45'4 7.0
2018-Nov-04 07:30N 50°58' E 001°51'0 0.0
2018-Nov-04 07:03N 50°58' E 001°51'0 0.0
2018-Nov-04 07:00N 50°58' E 001°51'0 0.0
2018-Nov-04 06:30N 50°58' E 001°51'0 0.0
2018-Nov-04 06:03N 50°58' E 001°51'0 0.0
2018-Nov-04 06:00N 50°58' E 001°51'0 0.0
2018-Nov-04 05:30N 50°58' E 001°51'0 0.0
2018-Nov-04 05:03N 50°58' E 001°51'0 0.0
2018-Nov-04 05:00N 50°58' E 001°51'0 0.0
2018-Nov-04 04:30N 50°58' E 001°51'0 0.0
2018-Nov-04 04:03N 50°58' E 001°51'0 0.0
2018-Nov-04 04:00N 50°58' E 001°51'0 0.0
2018-Nov-04 03:30N 50°58' E 001°51'0 0.0
2018-Nov-04 03:03N 50°58' E 001°51'0 0.0
2018-Nov-04 03:00N 50°58' E 001°51'0 0.0
2018-Nov-04 02:30N 50°58' E 001°51'0 0.0
2018-Nov-04 02:03N 50°58' E 001°51'0 0.0
2018-Nov-04 02:00N 50°58' E 001°51'0 0.0
2018-Nov-04 01:30N 50°58' E 001°51'1 2.6
2018-Nov-04 01:03N 50°58' E 001°49'117.7
2018-Nov-04 01:00N 50°58' E 001°48'917.5
2018-Nov-04 00:30N 51°02' E 001°35'918.9
2018-Nov-04 00:03N 51°06' E 001°24'119.5
2018-Nov-04 00:00N 51°07' E 001°22'2 3.1
2018-Nov-03 23:30N 51°07' E 001°20'0 0.2
2018-Nov-03 23:03N 51°07' E 001°20'0 1.3
2018-Nov-03 23:00N 51°07' E 001°20'817.2
2018-Nov-03 22:30N 51°04' E 001°33'13 6.6
2018-Nov-03 20:30N 50°58' E 001°51'715.7
2018-Nov-03 20:03N 50°59' E 001°40'119.8
2018-Nov-03 20:01N 50°59' E 001°38'918.9
2018-Nov-03 19:30N 51°05' E 001°26'510.2
2018-Nov-03 19:03N 51°07' E 001°20'0 0.0
2018-Nov-03 19:00N 51°07' E 001°20'0 0.1
2018-Nov-03 18:29N 51°07' E 001°20'614.0
2018-Nov-03 18:04N 51°05' E 001°29'119.8
2018-Nov-03 18:01N 51°05' E 001°31'1019.5
2018-Nov-03 17:30N 50°59' E 001°43'511.3
2018-Nov-03 17:04N 50°58' E 001°51'0 0.0
2018-Nov-03 17:01N 50°58' E 001°51'0 0.0
2018-Nov-03 16:31N 50°58' E 001°51'1 2.4
2018-Nov-03 16:04N 50°58' E 001°49'118.1
2018-Nov-03 16:00N 50°58' E 001°48'917.7
2018-Nov-03 15:30N 51°01' E 001°35'818.8
2018-Nov-03 15:03N 51°06' E 001°24'118.6
2018-Nov-03 15:01N 51°06' E 001°23'2 3.8
2018-Nov-03 14:31N 51°07' E 001°20'0 0.0
2018-Nov-03 14:04N 51°07' E 001°20'0 0.0
2018-Nov-03 14:01N 51°07' E 001°20'3 6.3
2018-Nov-03 13:31N 51°07' E 001°25'818.8
2018-Nov-03 13:04N 51°02' E 001°36'119.5
2018-Nov-03 13:01N 51°02' E 001°37'917.7
2018-Nov-03 12:30N 50°58' E 001°51'0 0.9
2018-Nov-03 12:03N 50°58' E 001°51'0 0.0
2018-Nov-03 12:00N 50°58' E 001°51'0 0.4
2018-Nov-03 11:30N 50°58' E 001°51'716.3
2018-Nov-03 11:03N 50°59' E 001°39'118.9
2018-Nov-03 11:01N 50°60' E 001°38'918.9
2018-Nov-03 10:31N 51°05' E 001°26'4 9.5
2018-Nov-03 10:03N 51°07' E 001°20'0 0.0
2018-Nov-03 10:01N 51°07' E 001°20'0 0.0
2018-Nov-03 09:30N 51°07' E 001°20'1 1.3
2018-Nov-03 09:03N 51°07' E 001°21'113.1
2018-Nov-03 09:00N 51°07' E 001°22'918.5
2018-Nov-03 08:30N 51°02' E 001°35'818.3
2018-Nov-03 08:03N 50°58' E 001°46'117.3
2018-Nov-03 08:00N 50°58' E 001°47'2 4.9
2018-Nov-03 07:30N 50°58' E 001°51'0 0.0
2018-Nov-03 07:03N 50°58' E 001°51'0 0.0
2018-Nov-03 07:00N 50°58' E 001°51'4 7.1
2018-Nov-03 06:30N 50°58' E 001°45'919.4
2018-Nov-03 06:03N 51°01' E 001°32'119.1
2018-Nov-03 06:00N 51°01' E 001°31'917.6
2018-Nov-03 05:30N 51°07' E 001°20'0 0.5
2018-Nov-03 05:04N 51°07' E 001°20'0 0.0
2018-Nov-03 05:01N 51°07' E 001°20'0 0.0
2018-Nov-03 04:31N 51°07' E 001°20'0 0.0
2018-Nov-03 04:04N 51°07' E 001°20'0 0.3
2018-Nov-03 04:01N 51°07' E 001°20'612.3
2018-Nov-03 03:31N 51°04' E 001°28'716.2
2018-Nov-03 03:03N 51°00' E 001°38'116.8
2018-Nov-03 03:00N 50°60' E 001°39'714.6
2018-Nov-03 02:31N 50°58' E 001°51'0 0.5
2018-Nov-03 02:03N 50°58' E 001°51'0 0.0
2018-Nov-03 02:00N 50°58' E 001°51'0 0.0
2018-Nov-03 01:30N 50°58' E 001°51'0 0.0
2018-Nov-03 01:03N 50°58' E 001°51'0 0.0
2018-Nov-03 01:00N 50°58' E 001°51'0 0.0
2018-Nov-03 00:30N 50°58' E 001°51'0 0.0
2018-Nov-03 00:03N 50°58' E 001°51'0 0.0
2018-Nov-03 00:00N 50°58' E 001°51'0 0.0
2018-Nov-02 23:30N 50°58' E 001°51'0 0.0
2018-Nov-02 23:03N 50°58' E 001°51'0 0.0
2018-Nov-02 23:00N 50°58' E 001°51'0 0.0
2018-Nov-02 22:30N 50°58' E 001°51'0 0.0
2018-Nov-02 22:03N 50°58' E 001°51'0 0.0
2018-Nov-02 22:00N 50°58' E 001°51'0 0.0
2018-Nov-02 21:30N 50°58' E 001°51'0 0.0
2018-Nov-02 21:03N 50°58' E 001°51'0 0.0
2018-Nov-02 21:00N 50°58' E 001°51'0 0.1
2018-Nov-02 20:30N 50°58' E 001°51'715.5
2018-Nov-02 20:04N 50°58' E 001°40'117.7
2018-Nov-02 20:00N 50°59' E 001°39'917.1
2018-Nov-02 19:31N 51°04' E 001°27'613.1
2018-Nov-02 19:03N 51°07' E 001°20'0 0.0
2018-Nov-02 19:00N 51°07' E 001°20'0 0.0
2018-Nov-02 18:30N 51°07' E 001°20'1 2.9
2018-Nov-02 18:03N 51°07' E 001°22'118.6
2018-Nov-02 18:00N 51°07' E 001°24'1019.7
2018-Nov-02 17:30N 51°01' E 001°37'818.1
2018-Nov-02 17:03N 50°58' E 001°49'116.8
2018-Nov-02 17:00N 50°58' E 001°50'1 1.5
2018-Nov-02 16:30N 50°58' E 001°51'0 0.1
2018-Nov-02 16:03N 50°58' E 001°51'0 3.0
2018-Nov-02 16:01N 50°58' E 001°51'817.0
2018-Nov-02 15:31N 50°60' E 001°37'919.3
2018-Nov-02 15:04N 51°04' E 001°26'119.0
2018-Nov-02 15:01N 51°05' E 001°25'4 7.7
2018-Nov-02 14:30N 51°07' E 001°20'0 0.0
2018-Nov-02 14:00N 51°07' E 001°20'4 7.8
2018-Nov-02 13:30N 51°07' E 001°26'918.9
2018-Nov-02 13:03N 51°02' E 001°37'119.6
2018-Nov-02 13:00N 51°01' E 001°38'816.8
2018-Nov-02 12:30N 50°58' E 001°51'0 0.3
2018-Nov-02 12:03N 50°58' E 001°51'0 0.0
2018-Nov-02 12:00N 50°58' E 001°51'0 0.4
2018-Nov-02 11:30N 50°58' E 001°51'816.9
2018-Nov-02 11:03N 50°58' E 001°39'119.1
2018-Nov-02 11:00N 50°58' E 001°37'919.0
2018-Nov-02 10:30N 51°05' E 001°26'510.3
2018-Nov-02 10:03N 51°07' E 001°20'0 0.1
2018-Nov-02 10:01N 51°07' E 001°20'0 0.0
2018-Nov-02 09:30N 51°07' E 001°20'2 4.9
2018-Nov-02 09:04N 51°07' E 001°24'118.9
2018-Nov-02 09:01N 51°07' E 001°25'918.3
2018-Nov-02 08:30N 51°02' E 001°38'817.5
2018-Nov-02 08:04N 50°58' E 001°48'115.2
2018-Nov-02 08:01N 50°58' E 001°49'1 2.1
2018-Nov-02 07:30N 50°58' E 001°51'0 0.0
2018-Nov-02 07:03N 50°58' E 001°51'0 0.0
2018-Nov-02 07:00N 50°58' E 001°51'0 0.0
2018-Nov-02 06:30N 50°58' E 001°51'0 0.0
2018-Nov-02 06:04N 50°58' E 001°51'0 0.0
2018-Nov-02 06:00N 50°58' E 001°51'0 0.0
2018-Nov-02 05:30N 50°58' E 001°51'0 0.0
2018-Nov-02 05:03N 50°58' E 001°51'0 0.0
2018-Nov-02 05:00N 50°58' E 001°51'0 0.0
2018-Nov-02 04:30N 50°58' E 001°51'0 0.0
2018-Nov-02 04:03N 50°58' E 001°51'0 0.2
2018-Nov-02 04:01N 50°58' E 001°51'0 0.0
2018-Nov-02 03:30N 50°58' E 001°51'0 0.0
2018-Nov-02 03:03N 50°58' E 001°51'0 0.0
2018-Nov-02 03:00N 50°58' E 001°51'0 0.0
2018-Nov-02 02:30N 50°58' E 001°51'0 0.0
2018-Nov-02 02:03N 50°58' E 001°51'0 0.0
2018-Nov-02 02:00N 50°58' E 001°51'0 0.0
2018-Nov-02 01:30N 50°58' E 001°51'0 0.0
2018-Nov-02 01:03N 50°58' E 001°51'0 0.0
2018-Nov-02 01:00N 50°58' E 001°51'0 0.0
2018-Nov-02 00:56N 50°58' E 001°51'0 0.0
2018-Nov-02 00:36N 50°58' E 001°51'0 0.0
2018-Nov-02 00:30N 50°58' E 001°51'0 0.0
2018-Nov-02 00:03N 50°58' E 001°51'0 0.0
2018-Nov-02 00:00N 50°58' E 001°51'0 0.0
2018-Nov-01 23:30N 50°58' E 001°51'0 0.0
2018-Nov-01 23:03N 50°58' E 001°51'0 0.0
2018-Nov-01 23:00N 50°58' E 001°51'0 0.0
2018-Nov-01 22:31N 50°58' E 001°51'0 0.0
2018-Nov-01 22:03N 50°58' E 001°51'0 0.0
2018-Nov-01 22:00N 50°58' E 001°51'0 0.0
2018-Nov-01 21:30N 50°58' E 001°51'4 9.0
2018-Nov-01 21:03N 50°58' E 001°45'116.5
2018-Nov-01 21:01N 50°58' E 001°43'815.2
2018-Nov-01 20:31N 51°01' E 001°32'817.7
2018-Nov-01 20:03N 51°06' E 001°23'117.6
2018-Nov-01 20:00N 51°07' E 001°22'1 2.3
2018-Nov-01 19:30N 51°07' E 001°20'0 0.3
2018-Nov-01 19:03N 51°07' E 001°20'0 0.7
2018-Nov-01 19:01N 51°07' E 001°20'714.7
2018-Nov-01 18:31N 51°06' E 001°32'716.5
2018-Nov-01 18:03N 51°02' E 001°41'117.0
2018-Nov-01 18:00N 51°01' E 001°42'613.0
2018-Nov-01 17:31N 50°58' E 001°51'0 0.2
2018-Nov-01 17:03N 50°58' E 001°51'0 0.0
2018-Nov-01 17:00N 50°58' E 001°51'2 3.9
2018-Nov-01 16:30N 50°58' E 001°48'817.6
2018-Nov-01 16:04N 51°00' E 001°36'117.5
2018-Nov-01 16:01N 51°01' E 001°35'816.9
2018-Nov-01 15:31N 51°06' E 001°24'3 6.4
2018-Nov-01 15:03N 51°07' E 001°20'0 0.0
2018-Nov-01 15:00N 51°07' E 001°20'3 3.3
2018-Nov-01 14:04N 51°07' E 001°25'117.5
2018-Nov-01 14:00N 51°06' E 001°26'917.5
2018-Nov-01 13:30N 51°02' E 001°38'716.4
2018-Nov-01 13:03N 50°58' E 001°49'115.8
2018-Nov-01 13:00N 50°58' E 001°50'1 1.5
2018-Nov-01 12:30N 50°58' E 001°51'0 0.0
2018-Nov-01 12:03N 50°58' E 001°51'0 0.0
2018-Nov-01 12:00N 50°58' E 001°51'611.7
2018-Nov-01 11:30N 50°58' E 001°42'816.8
2018-Nov-01 11:03N 51°02' E 001°31'116.9
2018-Nov-01 11:00N 51°02' E 001°30'815.9
2018-Nov-01 10:31N 51°07' E 001°20'0 0.4
2018-Nov-01 10:03N 51°07' E 001°20'0 0.0
2018-Nov-01 10:00N 51°07' E 001°20'0 0.4
2018-Nov-01 09:30N 51°07' E 001°20'511.3
2018-Nov-01 09:04N 51°06' E 001°28'117.2
2018-Nov-01 09:01N 51°06' E 001°29'917.4
2018-Nov-01 08:31N 51°01' E 001°40'715.5
2018-Nov-01 08:03N 50°58' E 001°50'0 3.8
2018-Nov-01 08:00N 50°58' E 001°51'0 0.4
2018-Nov-01 07:30N 50°58' E 001°51'0 0.0
2018-Nov-01 07:03N 50°58' E 001°51'0 0.0
2018-Nov-01 07:00N 50°58' E 001°51'612.8
2018-Nov-01 06:30N 50°58' E 001°41'714.9
2018-Nov-01 06:04N 51°02' E 001°32'116.3
2018-Nov-01 06:00N 51°02' E 001°31'816.1
2018-Nov-01 05:30N 51°07' E 001°21'0 1.0
2018-Nov-01 05:03N 51°07' E 001°20'0 0.0
2018-Nov-01 05:00N 51°07' E 001°20'0 0.0
2018-Nov-01 04:30N 51°07' E 001°20'0 0.4
2018-Nov-01 04:03N 51°07' E 001°20'110.9
2018-Nov-01 04:01N 51°07' E 001°21'816.5
2018-Nov-01 03:30N 51°03' E 001°33'817.7
2018-Nov-01 03:04N 50°59' E 001°43'116.9
2018-Nov-01 03:00N 50°58' E 001°44'  

Dump ship's entire track history